Time;durP1;ratioP1;P1;durP2;ratioP2;P2;SDS_P1;SDS_P2;PMS_P1;PMS_P2;Temp;Humidity;BMP_temperature;BMP_pressure;BME280_temperature;BME280_humidity;BME280_pressure;Samples;Min_cycle;Max_cycle;Signal;HPM_P1;HPM_P2
2022/06/01 00:01:08;;;;;;;3.30;0.40;;;14.80;99.90;;;;;;5074527;28;20195;-66
2022/06/01 00:03:39;;;;;;;0.50;0.40;;;15.10;99.90;;;;;;5073497;28;20180;-67
2022/06/01 00:06:06;;;;;;;1.07;0.40;;;15.20;99.90;;;;;;5073918;28;20228;-66
2022/06/01 00:08:34;;;;;;;1.13;0.50;;;15.00;99.90;;;;;;5074291;28;20546;-67
2022/06/01 00:11:03;;;;;;;2.27;0.40;;;14.90;99.90;;;;;;5073065;28;20180;-67
2022/06/01 00:13:31;;;;;;;0.47;0.40;;;14.90;99.90;;;;;;5073838;28;20176;-67
2022/06/01 00:15:58;;;;;;;0.60;0.40;;;14.90;99.90;;;;;;5074495;28;20253;-67
2022/06/01 00:18:26;;;;;;;0.57;0.50;;;14.40;99.90;;;;;;5074154;28;20300;-66
2022/06/01 00:20:54;;;;;;;1.47;0.40;;;14.60;99.90;;;;;;5074171;28;20182;-67
2022/06/01 00:23:22;;;;;;;0.40;0.40;;;14.30;99.90;;;;;;5073520;28;20216;-67
2022/06/01 00:25:50;;;;;;;0.50;0.30;;;14.50;99.90;;;;;;5074022;28;20190;-67
2022/06/01 00:28:18;;;;;;;0.60;0.40;;;14.40;99.90;;;;;;5072572;28;20582;-68
2022/06/01 00:30:45;;;;;;;0.97;0.40;;;14.50;99.90;;;;;;5073734;28;20176;-68
2022/06/01 00:33:12;;;;;;;0.83;0.43;;;14.90;99.90;;;;;;5072655;28;20179;-67
2022/06/01 00:35:40;;;;;;;1.33;0.37;;;15.00;99.90;;;;;;5071465;28;20328;-66
2022/06/01 00:38:07;;;;;;;0.40;0.40;;;15.10;98.90;;;;;;5072422;28;20180;-67
2022/06/01 00:40:35;;;;;;;0.77;0.50;;;15.10;99.90;;;;;;5072435;28;20193;-68
2022/06/01 00:43:21;;;;;;;4.00;1.10;;;15.00;99.90;;;;;;5070890;28;20192;-68
2022/06/01 00:45:48;;;;;;;0.53;0.50;;;15.10;99.50;;;;;;5072711;28;20612;-67
2022/06/01 00:48:16;;;;;;;0.40;0.40;;;15.60;99.90;;;;;;5072258;28;20198;-69
2022/06/01 00:50:45;;;;;;;0.70;0.40;;;15.50;97.90;;;;;;5072421;28;20241;-68
2022/06/01 00:53:24;;;;;;;2.87;0.50;;;15.20;96.30;;;;;;5072412;28;20179;-68
2022/06/01 00:56:04;;;;;;;2.40;0.30;;;15.30;97.50;;;;;;5072086;28;20229;-68
2022/06/01 00:58:41;;;;;;;0.40;0.40;;;15.40;96.20;;;;;;5071483;28;20282;-68
2022/06/01 01:01:17;;;;;;;0.80;0.40;;;15.50;97.20;;;;;;5071287;28;20641;-68
2022/06/01 01:03:46;;;;;;;1.43;0.40;;;15.40;96.30;;;;;;5058485;28;20237;-68
2022/06/01 01:06:25;;;;;;;1.23;0.40;;;15.30;94.90;;;;;;5070848;28;20283;-68
2022/06/01 01:08:53;;;;;;;1.73;0.43;;;15.20;94.70;;;;;;5072222;28;20188;-67
2022/06/01 01:11:28;;;;;;;2.00;0.40;;;15.50;96.90;;;;;;5072251;28;20214;-66
2022/06/01 01:13:58;;;;;;;4.53;0.50;;;16.00;92.40;;;;;;5072307;28;20191;-65
2022/06/01 01:16:26;;;;;;;1.03;0.40;;;15.40;90.00;;;;;;5071150;28;20542;-66
2022/06/01 01:18:56;;;;;;;0.73;0.40;;;15.40;88.70;;;;;;5071699;28;20228;-66
2022/06/01 01:21:47;;;;;;;1.47;0.57;;;15.30;86.70;;;;;;5071612;28;20701;-66
2022/06/01 01:24:23;;;;;;;1.60;0.40;;;15.20;87.70;;;;;;5070871;28;20183;-67
2022/06/01 01:26:52;;;;;;;2.13;0.40;;;15.70;90.90;;;;;;5086675;28;20215;-66
2022/06/01 01:29:41;;;;;;;2.53;0.70;;;15.60;87.40;;;;;;5073357;28;20180;-68
2022/06/01 01:32:11;;;;;;;0.83;0.50;;;15.90;89.00;;;;;;5071804;28;20187;-68
2022/06/01 01:34:40;;;;;;;0.77;0.40;;;16.00;90.70;;;;;;5071910;28;20183;-68
2022/06/01 01:37:17;;;;;;;0.63;0.40;;;16.10;88.60;;;;;;5071810;28;20236;-66
2022/06/01 01:39:45;;;;;;;1.53;0.40;;;15.90;86.20;;;;;;5071236;28;20189;-67
2022/06/01 01:42:13;;;;;;;2.13;0.43;;;16.30;86.40;;;;;;5071763;28;20184;-66
2022/06/01 01:44:44;;;;;;;1.47;0.67;;;16.20;81.50;;;;;;5071310;28;20188;-68
2022/06/01 01:47:12;;;;;;;0.83;0.40;;;16.60;82.90;;;;;;5071276;28;20217;-66
2022/06/01 01:49:41;;;;;;;2.47;0.43;;;17.20;82.80;;;;;;5070994;28;20191;-67
2022/06/01 01:52:14;;;;;;;0.30;0.30;;;17.00;80.30;;;;;;5069879;28;20191;-67
2022/06/01 01:55:15;;;;;;;2.13;0.40;;;16.80;74.00;;;;;;5067932;28;20590;-67
2022/06/01 01:58:04;;;;;;;0.43;0.37;;;17.10;79.10;;;;;;5070826;28;20630;-67
2022/06/01 02:00:39;;;;;;;0.93;0.57;;;16.10;77.40;;;;;;5069032;28;20191;-66
2022/06/01 02:03:28;;;;;;;0.90;0.60;;;15.90;75.20;;;;;;5068108;28;20221;-67
2022/06/01 02:06:07;;;;;;;0.83;0.50;;;16.20;76.10;;;;;;5068917;28;20186;-67
2022/06/01 02:08:34;;;;;;;1.47;0.50;;;16.10;77.60;;;;;;5070680;28;20237;-67
2022/06/01 02:14:01;;;;;;;0.53;0.47;;;15.90;74.80;;;;;;5071376;28;20326;-66
2022/06/01 02:16:33;;;;;;;3.10;0.43;;;16.10;76.20;;;;;;5070912;28;20190;-68
2022/06/01 02:19:04;;;;;;;2.63;1.63;;;16.40;76.60;;;;;;5070739;28;20227;-66
2022/06/01 02:21:32;;;;;;;1.40;0.83;;;15.80;74.60;;;;;;5071274;28;20558;-66
2022/06/01 02:24:01;;;;;;;3.77;3.40;;;16.10;73.10;;;;;;5071374;28;20903;-66
2022/06/01 02:26:29;;;;;;;0.80;0.80;;;16.10;74.00;;;;;;5070715;28;20206;-66
2022/06/01 02:29:14;;;;;;;4.90;2.97;;;16.20;76.20;;;;;;5070565;28;20195;-67
2022/06/01 02:31:43;;;;;;;1.70;0.90;;;16.00;75.20;;;;;;5071105;28;20172;-68
2022/06/01 02:34:12;;;;;;;0.63;0.43;;;16.40;77.80;;;;;;5071141;28;20183;-68
2022/06/01 02:36:41;;;;;;;0.90;0.40;;;16.60;75.40;;;;;;5070492;28;20184;-68
2022/06/01 02:39:11;;;;;;;1.03;0.50;;;16.80;73.30;;;;;;5070803;28;20545;-68
2022/06/01 02:44:24;;;;;;;1.67;0.60;;;16.30;72.70;;;;;;5053350;28;20192;-66
2022/06/01 02:46:51;;;;;;;3.87;2.60;;;16.70;72.00;;;;;;5051240;28;20674;-67
2022/06/01 02:49:19;;;;;;;2.63;2.13;;;17.00;74.10;;;;;;5070801;28;20176;-67
2022/06/01 02:51:46;;;;;;;1.70;0.77;;;16.70;71.80;;;;;;5070712;28;20184;-68
2022/06/01 02:54:14;;;;;;;0.40;0.40;;;16.00;71.50;;;;;;5071320;28;20286;-65
2022/06/01 02:56:41;;;;;;;2.27;0.50;;;15.80;69.70;;;;;;5071065;28;20253;-66
2022/06/01 02:59:09;;;;;;;1.63;0.43;;;16.00;69.90;;;;;;5070795;28;20309;-66
2022/06/01 03:01:36;;;;;;;2.93;0.50;;;16.10;70.80;;;;;;5069389;28;20195;-66
2022/06/01 03:04:06;;;;;;;5.97;1.33;;;15.70;71.50;;;;;;5069760;28;20207;-67
2022/06/01 03:06:33;;;;;;;0.30;0.30;;;16.40;72.90;;;;;;5072853;28;20203;-66
2022/06/01 03:09:00;;;;;;;0.87;0.53;;;16.20;75.30;;;;;;5073730;28;20562;-67
2022/06/01 03:11:28;;;;;;;0.60;0.40;;;16.30;73.80;;;;;;5073770;28;20183;-66
2022/06/01 03:13:55;;;;;;;0.53;0.40;;;16.70;73.30;;;;;;5072800;28;20222;-66
2022/06/01 03:16:23;;;;;;;1.03;0.40;;;16.20;71.80;;;;;;5074355;28;20207;-66
2022/06/01 03:18:50;;;;;;;2.00;0.50;;;16.30;71.80;;;;;;5074052;28;20704;-66
2022/06/01 03:21:19;;;;;;;0.90;0.50;;;16.10;73.60;;;;;;5074473;28;20179;-66
2022/06/01 03:23:46;;;;;;;1.80;0.70;;;15.90;74.20;;;;;;5074326;28;20203;-66
2022/06/01 03:26:14;;;;;;;0.73;0.37;;;16.50;73.30;;;;;;5077822;28;20237;-66
2022/06/01 03:28:41;;;;;;;1.63;0.50;;;16.30;72.70;;;;;;5094299;28;20178;-67
2022/06/01 03:31:08;;;;;;;0.50;0.40;;;16.60;73.30;;;;;;5079932;28;20188;-67
2022/06/01 03:33:36;;;;;;;1.33;1.07;;;16.70;70.10;;;;;;5072963;28;20186;-66
2022/06/01 03:36:07;;;;;;;8.23;0.67;;;16.00;70.60;;;;;;5074149;28;20180;-67
2022/06/01 03:38:35;;;;;;;0.60;0.50;;;16.10;70.30;;;;;;5074008;28;20176;-67
2022/06/01 03:41:02;;;;;;;0.63;0.50;;;16.40;72.80;;;;;;5074134;28;20259;-66
2022/06/01 03:43:30;;;;;;;3.00;0.57;;;16.80;74.10;;;;;;5073812;28;20686;-67
2022/06/01 03:46:02;;;;;;;6.30;0.70;;;16.50;72.50;;;;;;5073728;28;20594;-67
2022/06/01 03:48:31;;;;;;;0.90;0.40;;;16.70;71.80;;;;;;5073726;28;20188;-66
2022/06/01 03:51:00;;;;;;;0.30;0.30;;;16.60;72.50;;;;;;5073749;28;20188;-67
2022/06/01 03:53:29;;;;;;;1.13;0.50;;;16.50;73.60;;;;;;5073577;28;20184;-66
2022/06/01 03:55:57;;;;;;;0.87;0.53;;;16.40;72.30;;;;;;5073788;28;20672;-66
2022/06/01 03:58:25;;;;;;;0.97;0.57;;;16.20;72.70;;;;;;5073478;28;20180;-67
2022/06/01 04:00:53;;;;;;;2.10;0.60;;;16.10;73.20;;;;;;5073536;28;20184;-66
2022/06/01 04:03:20;;;;;;;1.07;0.50;;;16.00;74.40;;;;;;5071912;28;20570;-67
2022/06/01 04:05:48;;;;;;;3.63;0.60;;;16.00;75.20;;;;;;5073493;28;20187;-66
2022/06/01 04:08:15;;;;;;;0.97;0.40;;;16.30;76.90;;;;;;5073497;28;20219;-67
2022/06/01 04:10:44;;;;;;;1.07;0.60;;;15.80;74.90;;;;;;5073408;28;20179;-66
2022/06/01 04:13:12;;;;;;;4.17;1.20;;;15.60;75.10;;;;;;5073027;28;20180;-67
2022/06/01 04:15:41;;;;;;;2.40;0.60;;;15.50;81.00;;;;;;5073197;28;20195;-67
2022/06/01 04:18:09;;;;;;;0.60;0.50;;;15.30;81.50;;;;;;5073102;28;20264;-67
2022/06/01 04:20:36;;;;;;;5.03;1.17;;;15.20;81.80;;;;;;5072487;28;20176;-67
2022/06/01 04:23:04;;;;;;;1.10;0.70;;;15.20;83.30;;;;;;5073176;28;20588;-67
2022/06/01 04:25:32;;;;;;;1.07;0.60;;;15.70;83.60;;;;;;5073059;28;20546;-67
2022/06/01 04:27:59;;;;;;;3.57;0.63;;;16.00;82.60;;;;;;5072848;28;20380;-67
2022/06/01 04:30:27;;;;;;;1.17;0.80;;;15.90;82.90;;;;;;5072638;28;20187;-67
2022/06/01 04:32:55;;;;;;;2.00;0.90;;;15.70;82.40;;;;;;5073116;28;20203;-68
2022/06/01 04:35:24;;;;;;;2.33;0.70;;;15.70;82.80;;;;;;5072864;28;20643;-66
2022/06/01 04:37:52;;;;;;;1.70;0.60;;;15.40;81.60;;;;;;5072962;28;20625;-66
2022/06/01 04:40:23;;;;;;;3.17;1.20;;;15.30;84.10;;;;;;5071907;28;20175;-68
2022/06/01 04:42:51;;;;;;;4.23;1.47;;;15.50;86.90;;;;;;5071640;28;20624;-66
2022/06/01 04:45:19;;;;;;;2.03;0.80;;;15.60;87.60;;;;;;5072070;28;20282;-66
2022/06/01 04:47:47;;;;;;;2.93;0.60;;;15.70;86.50;;;;;;5072725;28;20306;-67
2022/06/01 04:50:14;;;;;;;1.83;0.70;;;15.50;87.50;;;;;;5072419;28;20180;-67
2022/06/01 04:52:41;;;;;;;1.70;0.63;;;15.10;87.30;;;;;;5072463;28;20206;-66
2022/06/01 04:55:09;;;;;;;5.17;0.73;;;15.20;90.00;;;;;;5071906;28;20275;-66
2022/06/01 04:57:37;;;;;;;0.70;0.57;;;15.00;90.60;;;;;;5070759;28;20187;-66
2022/06/01 05:00:05;;;;;;;8.63;0.90;;;15.10;90.10;;;;;;5071571;28;20212;-66
2022/06/01 05:02:32;;;;;;;1.33;0.60;;;15.40;92.40;;;;;;5071115;28;20270;-67
2022/06/01 05:05:00;;;;;;;2.03;0.60;;;15.30;91.70;;;;;;5072236;28;20274;-66
2022/06/01 05:07:28;;;;;;;1.47;0.60;;;15.10;91.90;;;;;;5072265;28;20254;-67
2022/06/01 05:09:55;;;;;;;0.60;0.40;;;15.00;92.40;;;;;;5071861;28;20721;-67
2022/06/01 05:12:22;;;;;;;3.50;1.13;;;14.90;92.90;;;;;;5072084;28;20629;-66
2022/06/01 05:14:50;;;;;;;1.43;0.73;;;14.90;94.10;;;;;;5070569;28;20523;-66
2022/06/01 05:17:19;;;;;;;2.33;0.57;;;15.00;95.50;;;;;;5071066;28;20230;-66
2022/06/01 05:19:46;;;;;;;0.70;0.50;;;14.90;95.50;;;;;;5067963;28;20180;-67
2022/06/01 05:22:14;;;;;;;2.13;0.60;;;14.80;95.30;;;;;;5071575;28;20187;-67
2022/06/01 05:24:41;;;;;;;2.10;0.50;;;14.50;96.00;;;;;;5071890;28;20233;-66
2022/06/01 05:27:08;;;;;;;1.87;1.50;;;14.30;99.40;;;;;;5071760;28;20214;-66
2022/06/01 05:29:36;;;;;;;1.13;0.50;;;14.30;99.90;;;;;;5071069;28;20275;-67
2022/06/01 05:32:04;;;;;;;1.73;0.70;;;14.10;99.90;;;;;;5071678;28;20206;-67
2022/06/01 05:34:31;;;;;;;3.10;0.67;;;14.20;99.90;;;;;;5071876;28;20191;-67
2022/06/01 05:36:58;;;;;;;5.33;1.07;;;13.80;99.90;;;;;;5071570;28;20710;-66
2022/06/01 05:39:26;;;;;;;0.97;0.70;;;13.70;99.90;;;;;;5070836;28;20621;-66
2022/06/01 05:41:53;;;;;;;0.77;0.67;;;13.60;99.90;;;;;;5070907;28;20639;-66
2022/06/01 05:44:20;;;;;;;2.10;0.80;;;13.50;99.90;;;;;;5071555;28;20185;-67
2022/06/01 05:46:55;;;;;;;3.00;0.80;;;13.50;99.90;;;;;;5070070;28;20249;-67
2022/06/01 05:49:22;;;;;;;1.53;0.60;;;13.50;99.90;;;;;;5071290;28;20667;-66
2022/06/01 05:51:50;;;;;;;3.57;0.80;;;13.40;99.90;;;;;;5071519;28;20185;-66
2022/06/01 05:54:19;;;;;;;1.47;0.60;;;13.40;99.90;;;;;;5071619;28;20228;-67
2022/06/01 05:56:47;;;;;;;2.37;0.90;;;13.40;99.90;;;;;;5071337;28;20539;-65
2022/06/01 05:59:15;;;;;;;3.93;1.20;;;13.40;99.90;;;;;;5071735;28;20545;-65
2022/06/01 06:01:43;;;;;;;0.77;0.73;;;13.30;99.90;;;;;;5072554;28;20189;-67
2022/06/01 06:04:10;;;;;;;2.10;1.07;;;13.30;99.90;;;;;;5072466;28;20211;-64
2022/06/01 06:06:38;;;;;;;6.03;0.80;;;13.20;99.90;;;;;;5071983;28;20775;-67
2022/06/01 06:09:10;;;;;;;1.77;0.77;;;13.20;99.90;;;;;;5072122;28;20263;-66
2022/06/01 06:11:40;;;;;;;1.43;0.70;;;13.20;99.90;;;;;;5071690;28;20640;-66
2022/06/01 06:14:08;;;;;;;4.63;0.97;;;13.10;99.90;;;;;;5069782;28;20184;-67
2022/06/01 06:16:42;;;;;;;1.20;0.80;;;13.00;99.90;;;;;;5072540;28;20261;-67
2022/06/01 06:19:10;;;;;;;3.27;0.60;;;13.00;99.90;;;;;;5072310;28;20239;-68
2022/06/01 06:21:38;;;;;;;1.53;0.50;;;13.00;99.90;;;;;;5072672;28;20168;-67
2022/06/01 06:24:12;;;;;;;2.00;0.53;;;12.90;99.90;;;;;;5072453;28;20615;-67
2022/06/01 06:26:42;;;;;;;1.23;0.60;;;12.80;99.90;;;;;;5072410;28;20213;-69
2022/06/01 06:29:11;;;;;;;2.13;0.50;;;12.80;99.90;;;;;;5071024;28;20592;-68
2022/06/01 06:31:39;;;;;;;0.43;0.43;;;12.80;99.90;;;;;;5072401;28;20177;-68
2022/06/01 06:34:07;;;;;;;1.43;0.70;;;12.70;99.90;;;;;;5072023;28;20278;-67
2022/06/01 06:36:35;;;;;;;5.37;0.60;;;12.70;99.90;;;;;;5072382;28;20322;-66
2022/06/01 06:39:03;;;;;;;1.23;0.90;;;12.70;99.90;;;;;;5072328;28;20183;-67
2022/06/01 06:41:30;;;;;;;1.77;0.60;;;12.60;99.90;;;;;;5074484;28;20194;-66
2022/06/01 06:43:58;;;;;;;3.40;0.70;;;12.50;99.90;;;;;;5074852;28;20178;-66
2022/06/01 06:46:25;;;;;;;2.07;0.60;;;12.50;99.90;;;;;;5075987;28;20201;-67
2022/06/01 06:48:53;;;;;;;1.00;0.73;;;12.50;99.90;;;;;;5076180;28;20223;-67
2022/06/01 06:51:22;;;;;;;3.00;0.80;;;12.40;99.90;;;;;;5076084;28;20193;-67
2022/06/01 06:53:50;;;;;;;2.70;0.70;;;12.30;99.90;;;;;;5075822;28;20177;-67
2022/06/01 06:56:19;;;;;;;0.77;0.70;;;12.30;99.90;;;;;;5076096;28;20171;-67
2022/06/01 06:58:46;;;;;;;3.47;0.80;;;12.30;99.90;;;;;;5075966;28;20177;-67
2022/06/01 07:01:14;;;;;;;1.67;0.63;;;12.20;99.90;;;;;;5076013;28;20622;-68
2022/06/01 07:03:41;;;;;;;1.57;0.70;;;12.20;99.90;;;;;;5075742;28;20233;-68
2022/06/01 07:06:09;;;;;;;3.23;0.60;;;12.20;99.90;;;;;;5075608;28;20698;-67
2022/06/01 07:08:39;;;;;;;4.23;0.60;;;12.20;99.90;;;;;;5075872;28;20184;-67
2022/06/01 07:11:06;;;;;;;0.80;0.50;;;12.20;99.90;;;;;;5075578;28;20182;-67
2022/06/01 07:13:34;;;;;;;2.10;0.87;;;12.10;99.90;;;;;;5075711;28;20232;-68
2022/06/01 07:16:09;;;;;;;4.07;1.00;;;12.10;99.90;;;;;;5074113;28;20274;-67
2022/06/01 07:18:39;;;;;;;2.00;1.17;;;11.90;99.90;;;;;;5075410;28;20305;-67
2022/06/01 07:21:07;;;;;;;0.60;0.60;;;11.90;99.90;;;;;;5075638;28;20566;-66
2022/06/01 07:23:37;;;;;;;5.97;0.70;;;11.90;99.90;;;;;;5075663;28;20175;-68
2022/06/01 07:26:08;;;;;;;1.80;0.83;;;11.80;99.90;;;;;;5075493;28;20175;-67
2022/06/01 07:28:36;;;;;;;2.10;0.70;;;11.80;99.90;;;;;;5075599;28;20205;-67
2022/06/01 07:31:04;;;;;;;1.40;0.77;;;11.70;99.90;;;;;;5075485;28;20327;-67
2022/06/01 07:33:32;;;;;;;1.43;0.60;;;11.80;99.90;;;;;;5075380;28;20548;-66
2022/06/01 07:36:01;;;;;;;3.80;0.83;;;11.80;99.90;;;;;;5075479;28;20173;-68
2022/06/01 07:44:09;;;;;;;4.23;0.80;;;11.80;99.90;;;;;;5075379;28;20190;-67
2022/06/01 07:46:37;;;;;;;1.13;0.70;;;11.80;99.90;;;;;;5075037;28;20206;-67
2022/06/01 07:49:08;;;;;;;1.33;0.90;;;11.70;99.90;;;;;;5075014;28;20189;-68
2022/06/01 07:51:37;;;;;;;2.80;0.80;;;11.70;99.90;;;;;;5074581;28;20638;-69
2022/06/01 07:54:05;;;;;;;0.73;0.60;;;11.70;99.90;;;;;;5075278;28;20174;-67
2022/06/01 07:56:34;;;;;;;4.30;0.63;;;11.70;99.90;;;;;;5075314;28;20228;-68
2022/06/01 07:59:02;;;;;;;1.70;1.00;;;11.60;99.90;;;;;;5074964;28;20173;-66
2022/06/01 08:01:29;;;;;;;2.47;1.03;;;11.70;99.90;;;;;;5075065;28;20227;-68
2022/06/01 08:03:59;;;;;;;3.20;0.70;;;11.60;99.90;;;;;;5074967;28;20174;-67
2022/06/01 08:06:27;;;;;;;0.70;0.70;;;11.50;99.90;;;;;;5074706;28;20260;-67
2022/06/01 08:08:55;;;;;;;1.20;0.80;;;11.50;99.90;;;;;;5074523;28;20268;-67
2022/06/01 08:13:06;;;;;;;1.47;0.87;;;11.50;99.90;;;;;;5074630;28;20540;-68
2022/06/01 08:14:12;;;;;;;0.80;0.80;;;11.40;99.90;;;;;;5074515;28;20194;-67
2022/06/01 08:16:44;;;;;;;1.97;0.90;;;11.40;99.90;;;;;;5074685;28;20177;-67
2022/06/01 08:19:14;;;;;;;1.83;1.07;;;11.30;99.90;;;;;;5074390;28;20328;-68
2022/06/01 08:21:42;;;;;;;1.30;1.00;;;11.30;99.90;;;;;;5074244;28;20269;-69
2022/06/01 08:24:10;;;;;;;1.53;0.80;;;11.30;99.90;;;;;;5074486;28;20181;-67
2022/06/01 08:26:37;;;;;;;1.17;0.97;;;11.20;99.90;;;;;;5073985;28;20194;-68
2022/06/01 08:29:05;;;;;;;1.27;1.03;;;11.20;99.90;;;;;;5074183;28;20240;-67
2022/06/01 08:31:34;;;;;;;4.20;1.53;;;11.10;99.90;;;;;;5074125;28;20237;-67
2022/06/01 08:34:03;;;;;;;3.03;0.90;;;10.90;99.90;;;;;;5074221;28;20181;-69
2022/06/01 08:36:32;;;;;;;2.73;0.90;;;10.60;99.90;;;;;;5074167;28;20214;-67
2022/06/01 08:38:59;;;;;;;2.07;0.93;;;10.50;99.90;;;;;;5074105;28;20561;-68
2022/06/01 08:41:35;;;;;;;4.40;0.90;;;10.30;99.90;;;;;;5073880;28;20191;-70
2022/06/01 08:44:22;;;;;;;2.60;0.80;;;10.20;99.90;;;;;;5074779;28;20267;-67
2022/06/01 08:46:50;;;;;;;1.57;1.00;;;10.00;99.90;;;;;;5075000;28;20333;-70
2022/06/01 08:49:24;;;;;;;1.93;1.23;;;9.90;99.90;;;;;;5074309;28;20195;-68
2022/06/01 08:51:53;;;;;;;4.30;1.30;;;9.80;99.90;;;;;;5074132;28;20683;-67
2022/06/01 08:54:21;;;;;;;3.53;1.30;;;9.70;99.90;;;;;;5073980;28;20180;-70
2022/06/01 08:57:06;;;;;;;1.50;1.40;;;9.60;99.90;;;;;;5073902;28;20192;-70
2022/06/01 09:00:04;;;;;;;2.90;1.80;;;9.70;99.90;;;;;;5073600;28;20704;-67
2022/06/01 09:02:58;;;;;;;2.90;1.77;;;9.60;99.90;;;;;;5073091;28;20719;-69
2022/06/01 09:05:34;;;;;;;2.03;1.77;;;9.60;99.90;;;;;;5073157;28;20179;-70
2022/06/01 09:08:14;;;;;;;1.90;1.50;;;9.50;99.90;;;;;;5073455;28;20333;-68
2022/06/01 09:11:11;;;;;;;6.93;3.00;;;9.30;99.90;;;;;;5073834;28;20167;-68
2022/06/01 09:13:58;;;;;;;4.23;2.83;;;9.30;99.90;;;;;;5072144;28;20226;-70
2022/06/01 09:16:37;;;;;;;7.23;3.07;;;9.20;99.90;;;;;;5073471;28;20614;-68
2022/06/01 09:19:09;;;;;;;7.43;3.27;;;9.00;99.90;;;;;;5071854;28;20239;-67
2022/06/01 09:24:35;;;;;;;5.47;3.17;;;8.70;99.90;;;;;;5073636;28;20183;-67
2022/06/01 09:27:13;;;;;;;7.27;3.43;;;8.60;99.90;;;;;;5073165;28;20212;-67
2022/06/01 09:29:49;;;;;;;4.10;2.80;;;8.50;99.90;;;;;;5073177;28;20179;-67
2022/06/01 09:32:30;;;;;;;6.67;2.90;;;8.30;99.90;;;;;;5073225;28;20178;-69
2022/06/01 09:35:10;;;;;;;6.90;2.70;;;8.30;99.90;;;;;;5073213;28;20175;-68
2022/06/01 09:37:46;;;;;;;5.40;2.60;;;8.20;99.90;;;;;;5073051;28;20176;-69
2022/06/01 09:40:30;;;;;;;2.53;2.33;;;8.10;99.90;;;;;;5072974;28;20172;-68
2022/06/01 09:43:01;;;;;;;4.43;2.67;;;8.00;99.90;;;;;;5073402;28;20179;-67
2022/06/01 09:45:33;;;;;;;3.60;2.60;;;7.90;99.90;;;;;;5072873;28;20226;-67
2022/06/01 09:48:21;;;;;;;4.47;2.83;;;7.90;99.90;;;;;;5072888;28;20211;-67
2022/06/01 09:51:12;;;;;;;4.97;3.50;;;7.80;99.90;;;;;;5072925;28;20218;-69
2022/06/01 09:53:45;;;;;;;4.97;2.70;;;7.80;99.90;;;;;;5072975;28;20179;-67
2022/06/01 09:56:28;;;;;;;16.50;7.57;;;7.70;99.90;;;;;;5072826;28;20270;-69
2022/06/01 10:07:29;;;;;;;5.60;3.23;;;7.40;99.90;;;;;;5072537;28;20219;-68
2022/06/01 10:10:04;;;;;;;6.40;3.60;;;7.40;99.90;;;;;;5072540;28;20181;-66
2022/06/01 10:12:42;;;;;;;6.23;3.50;;;7.40;99.90;;;;;;5072658;28;20554;-67
2022/06/01 10:15:40;;;;;;;7.23;4.57;;;7.60;99.90;;;;;;5072371;28;20176;-65
2022/06/01 10:18:24;;;;;;;5.57;2.87;;;7.60;99.90;;;;;;5071108;28;20300;-67
2022/06/01 10:21:06;;;;;;;3.87;2.60;;;7.70;99.90;;;;;;5072689;28;20175;-67
2022/06/01 10:23:52;;;;;;;3.93;2.63;;;7.80;99.90;;;;;;5072714;28;20180;-67
2022/06/01 10:26:25;;;;;;;3.47;2.03;;;7.90;99.90;;;;;;5072611;28;20242;-66
2022/06/01 10:29:04;;;;;;;4.27;2.13;;;8.00;99.90;;;;;;5072479;28;20194;-66
2022/06/01 10:31:53;;;;;;;4.90;2.27;;;8.00;99.90;;;;;;5072495;28;20196;-66
2022/06/01 10:34:26;;;;;;;3.87;2.17;;;8.00;99.90;;;;;;5072454;28;20188;-67
2022/06/01 10:37:03;;;;;;;5.10;2.57;;;8.00;99.90;;;;;;5072286;28;20540;-67
2022/06/01 10:39:49;;;;;;;4.43;3.43;;;8.00;99.90;;;;;;5072278;28;20177;-67
2022/06/01 10:45:24;;;;;;;6.40;4.30;;;7.80;99.90;;;;;;5072156;28;20660;-67
2022/06/01 10:48:06;;;;;;;3.60;2.83;;;7.60;99.90;;;;;;5072210;28;20203;-66
2022/06/01 10:51:02;;;;;;;4.83;3.57;;;7.60;99.90;;;;;;5072347;28;20168;-66
2022/06/01 10:53:34;;;;;;;6.23;3.00;;;7.60;99.90;;;;;;5070121;28;20203;-66
2022/06/01 10:56:01;;;;;;;5.67;3.20;;;7.50;99.90;;;;;;5072338;28;20195;-66
2022/06/01 10:58:30;;;;;;;5.63;4.37;;;7.40;99.90;;;;;;5071829;28;20219;-68
2022/06/01 11:01:25;;;;;;;5.43;4.37;;;7.30;99.90;;;;;;5071982;28;20175;-66
2022/06/01 11:04:11;;;;;;;5.63;3.80;;;7.30;99.90;;;;;;5072501;28;20180;-66
2022/06/01 11:06:58;;;;;;;7.87;4.37;;;7.20;99.90;;;;;;5072129;28;20306;-67
2022/06/01 11:09:54;;;;;;;5.13;3.67;;;7.10;99.90;;;;;;5072464;28;20176;-67
2022/06/01 11:12:55;;;;;;;3.77;3.37;;;7.00;99.90;;;;;;5071975;28;20180;-66
2022/06/01 11:15:38;;;;;;;5.73;4.03;;;7.00;99.90;;;;;;5072185;28;20265;-65
2022/06/01 11:18:40;;;;;;;4.77;3.57;;;6.90;99.90;;;;;;5071854;28;20237;-66
2022/06/01 11:21:40;;;;;;;3.63;3.33;;;6.80;99.90;;;;;;5072200;28;20178;-68
2022/06/01 11:24:23;;;;;;;5.57;3.60;;;6.80;99.90;;;;;;5072022;28;20641;-67
2022/06/01 11:27:22;;;;;;;3.70;3.03;;;6.80;99.90;;;;;;5072874;28;20207;-65
2022/06/01 11:30:14;;;;;;;4.00;3.10;;;6.70;99.90;;;;;;5075445;28;20224;-66
2022/06/01 11:33:15;;;;;;;4.17;2.90;;;6.70;99.90;;;;;;5075551;28;20168;-66
2022/06/01 11:36:03;;;;;;;4.13;3.33;;;6.70;99.90;;;;;;5075521;28;20202;-65
2022/06/01 11:38:41;;;;;;;6.50;4.07;;;6.60;99.90;;;;;;5075468;28;20171;-66
2022/06/01 11:41:32;;;;;;;7.40;6.20;;;6.60;99.90;;;;;;5075398;28;20176;-68
2022/06/01 11:44:14;;;;;;;4.67;3.30;;;6.60;99.90;;;;;;5075468;28;20255;-67
2022/06/01 11:46:53;;;;;;;30.00;19.93;;;6.70;99.90;;;;;;5074930;28;20208;-66
2022/06/01 11:49:39;;;;;;;11.20;7.07;;;6.80;99.90;;;;;;5075359;28;20179;-67
2022/06/01 11:52:41;;;;;;;6.50;5.13;;;6.80;99.90;;;;;;5075099;28;20168;-67
2022/06/01 11:55:22;;;;;;;5.57;4.90;;;6.70;99.90;;;;;;5068113;28;20653;-67
2022/06/01 11:58:03;;;;;;;4.67;2.97;;;6.70;99.90;;;;;;5074976;28;20516;-67
2022/06/01 12:00:51;;;;;;;4.63;3.37;;;6.90;99.90;;;;;;5074866;28;20180;-67
2022/06/01 12:03:30;;;;;;;4.70;2.37;;;7.10;99.90;;;;;;5074855;28;20262;-66
2022/06/01 12:06:42;;;;;;;4.37;2.53;;;7.40;99.90;;;;;;5074864;28;20181;-68
2022/06/01 12:09:37;;;;;;;2.70;2.07;;;7.60;99.90;;;;;;5074710;28;20257;-66
2022/06/01 12:12:05;;;;;;;2.90;1.70;;;7.70;99.90;;;;;;5074987;28;20175;-67
2022/06/01 12:14:38;;;;;;;2.07;1.50;;;7.80;99.90;;;;;;5074620;28;20603;-67
2022/06/01 12:17:17;;;;;;;2.67;1.70;;;7.80;99.90;;;;;;5074415;28;20310;-67
2022/06/01 12:20:07;;;;;;;2.50;1.20;;;7.70;99.90;;;;;;5074586;28;20286;-68
2022/06/01 12:28:57;;;;;;;2.30;1.60;;;7.30;99.90;;;;;;5070028;28;20574;-67
2022/06/01 12:31:32;;;;;;;1.80;1.63;;;7.20;99.90;;;;;;5073351;28;20183;-67
2022/06/01 12:34:02;;;;;;;2.30;1.63;;;7.10;99.90;;;;;;5074530;28;20551;-67
2022/06/01 12:36:38;;;;;;;2.00;1.80;;;7.00;99.90;;;;;;5074265;28;20172;-67
2022/06/01 12:39:09;;;;;;;3.63;1.40;;;6.90;99.90;;;;;;5072813;28;20204;-65
2022/06/01 12:41:39;;;;;;;2.77;1.47;;;6.90;99.90;;;;;;5074813;28;20267;-67
2022/06/01 12:44:10;;;;;;;2.30;1.83;;;6.90;99.90;;;;;;5074205;28;20180;-67
2022/06/01 12:46:41;;;;;;;3.07;1.60;;;6.80;99.90;;;;;;5074029;28;20262;-69
2022/06/01 12:49:41;;;;;;;2.50;1.80;;;6.70;99.90;;;;;;5074123;28;20175;-67
2022/06/01 12:52:26;;;;;;;1.90;1.37;;;6.70;99.90;;;;;;5074080;28;20188;-67
2022/06/01 12:55:06;;;;;;;4.57;1.53;;;6.60;99.90;;;;;;5074098;28;20179;-66
2022/06/01 12:57:43;;;;;;;2.37;1.90;;;6.60;99.90;;;;;;5073836;28;20541;-68
2022/06/01 13:00:17;;;;;;;4.40;1.80;;;6.50;99.90;;;;;;5073948;28;20647;-68
2022/06/01 13:02:46;;;;;;;9.20;4.50;;;6.40;99.90;;;;;;5073891;28;20179;-67
2022/06/01 13:05:36;;;;;;;16.03;6.23;;;6.40;99.90;;;;;;5073744;28;20614;-68
2022/06/01 13:08:08;;;;;;;2.00;1.80;;;6.30;99.90;;;;;;5073514;28;20207;-69
2022/06/01 13:10:37;;;;;;;2.20;1.43;;;6.30;99.90;;;;;;5073596;28;20168;-68
2022/06/01 13:13:14;;;;;;;2.07;1.30;;;6.40;99.90;;;;;;5073666;28;20176;-66
2022/06/01 13:15:44;;;;;;;2.93;1.20;;;6.40;99.90;;;;;;5073753;28;20175;-68
2022/06/01 13:18:20;;;;;;;3.67;1.47;;;6.40;99.90;;;;;;5073359;28;20242;-67
2022/06/01 13:21:13;;;;;;;5.70;1.97;;;6.40;99.90;;;;;;5073455;28;20179;-68
2022/06/01 13:24:01;;;;;;;3.77;1.73;;;6.40;99.90;;;;;;5073418;28;20172;-69
2022/06/01 13:26:39;;;;;;;4.47;2.20;;;6.40;99.90;;;;;;5073194;28;20180;-68
2022/06/01 13:29:21;;;;;;;2.27;1.60;;;6.50;99.90;;;;;;5073328;28;20209;-69
2022/06/01 13:31:55;;;;;;;3.37;1.80;;;6.40;99.90;;;;;;5073536;28;20178;-68
2022/06/01 13:34:29;;;;;;;4.83;2.57;;;6.30;99.90;;;;;;5073247;28;20206;-68
2022/06/01 13:37:21;;;;;;;4.10;2.10;;;6.20;99.90;;;;;;5073306;28;20182;-68
2022/06/01 13:40:01;;;;;;;5.10;2.40;;;6.20;99.90;;;;;;5073304;28;20175;-68
2022/06/01 13:42:35;;;;;;;3.73;2.00;;;6.10;99.90;;;;;;5073569;28;20202;-66
2022/06/01 13:45:05;;;;;;;3.23;2.27;;;6.10;99.90;;;;;;5073158;28;20172;-66
2022/06/01 13:47:41;;;;;;;4.30;2.50;;;6.10;99.90;;;;;;5073032;28;20341;-67
2022/06/01 13:50:23;;;;;;;6.50;2.40;;;6.00;99.90;;;;;;5072510;28;20590;-67
2022/06/01 13:53:25;;;;;;;3.60;2.30;;;6.10;99.90;;;;;;5070892;28;20274;-66
2022/06/01 13:56:22;;;;;;;3.10;2.03;;;6.20;99.90;;;;;;5063758;28;20199;-66